sensor_id;sensor_type;location;lat;lon;timestamp;P1;durP1;ratioP1;P2;durP2;ratioP2
2992;SDS011;1506;48.932;9.478;2022-12-18T00:01:18;95.95;;;32.50;;
2992;SDS011;1506;48.932;9.478;2022-12-18T00:03:47;79.70;;;30.90;;
2992;SDS011;1506;48.932;9.478;2022-12-18T00:06:15;89.88;;;31.08;;
2992;SDS011;1506;48.932;9.478;2022-12-18T00:08:43;122.45;;;37.85;;
2992;SDS011;1506;48.932;9.478;2022-12-18T00:11:12;106.93;;;34.30;;
2992;SDS011;1506;48.932;9.478;2022-12-18T00:13:41;115.03;;;37.05;;
2992;SDS011;1506;48.932;9.478;2022-12-18T00:16:10;92.40;;;34.15;;
2992;SDS011;1506;48.932;9.478;2022-12-18T00:18:41;88.07;;;33.78;;
2992;SDS011;1506;48.932;9.478;2022-12-18T00:21:09;74.25;;;31.95;;
2992;SDS011;1506;48.932;9.478;2022-12-18T00:23:38;89.85;;;32.45;;
2992;SDS011;1506;48.932;9.478;2022-12-18T00:26:10;139.43;;;35.78;;
2992;SDS011;1506;48.932;9.478;2022-12-18T00:28:38;79.15;;;31.58;;
2992;SDS011;1506;48.932;9.478;2022-12-18T00:31:07;102.15;;;31.52;;
2992;SDS011;1506;48.932;9.478;2022-12-18T00:33:39;89.60;;;32.88;;
2992;SDS011;1506;48.932;9.478;2022-12-18T00:38:37;100.75;;;32.65;;
2992;SDS011;1506;48.932;9.478;2022-12-18T00:41:06;91.47;;;29.30;;
2992;SDS011;1506;48.932;9.478;2022-12-18T00:43:34;105.82;;;34.90;;
2992;SDS011;1506;48.932;9.478;2022-12-18T00:46:03;79.47;;;30.40;;
2992;SDS011;1506;48.932;9.478;2022-12-18T00:48:31;95.10;;;30.20;;
2992;SDS011;1506;48.932;9.478;2022-12-18T00:50:58;66.90;;;28.88;;
2992;SDS011;1506;48.932;9.478;2022-12-18T00:53:26;119.32;;;36.88;;
2992;SDS011;1506;48.932;9.478;2022-12-18T00:55:54;89.40;;;27.20;;
2992;SDS011;1506;48.932;9.478;2022-12-18T00:58:22;123.00;;;33.47;;
2992;SDS011;1506;48.932;9.478;2022-12-18T01:00:49;125.07;;;31.33;;
2992;SDS011;1506;48.932;9.478;2022-12-18T01:03:17;69.63;;;26.75;;
2992;SDS011;1506;48.932;9.478;2022-12-18T01:05:44;92.18;;;32.45;;
2992;SDS011;1506;48.932;9.478;2022-12-18T01:08:12;127.63;;;33.45;;
2992;SDS011;1506;48.932;9.478;2022-12-18T01:10:42;116.75;;;36.38;;
2992;SDS011;1506;48.932;9.478;2022-12-18T01:13:10;104.10;;;33.83;;
2992;SDS011;1506;48.932;9.478;2022-12-18T01:15:37;94.90;;;30.20;;
2992;SDS011;1506;48.932;9.478;2022-12-18T01:18:05;94.03;;;30.88;;
2992;SDS011;1506;48.932;9.478;2022-12-18T01:20:32;102.75;;;30.40;;
2992;SDS011;1506;48.932;9.478;2022-12-18T01:23:00;86.65;;;32.22;;
2992;SDS011;1506;48.932;9.478;2022-12-18T01:25:27;106.88;;;26.70;;
2992;SDS011;1506;48.932;9.478;2022-12-18T01:27:55;76.65;;;29.83;;
2992;SDS011;1506;48.932;9.478;2022-12-18T01:30:23;83.05;;;33.38;;
2992;SDS011;1506;48.932;9.478;2022-12-18T01:32:51;92.45;;;34.55;;
2992;SDS011;1506;48.932;9.478;2022-12-18T01:35:19;95.75;;;34.03;;
2992;SDS011;1506;48.932;9.478;2022-12-18T01:37:46;113.95;;;33.58;;
2992;SDS011;1506;48.932;9.478;2022-12-18T01:40:14;92.45;;;28.52;;
2992;SDS011;1506;48.932;9.478;2022-12-18T01:42:41;60.08;;;20.75;;
2992;SDS011;1506;48.932;9.478;2022-12-18T01:47:43;82.50;;;26.88;;
2992;SDS011;1506;48.932;9.478;2022-12-18T01:52:46;96.88;;;34.17;;
2992;SDS011;1506;48.932;9.478;2022-12-18T01:55:16;81.43;;;27.15;;
2992;SDS011;1506;48.932;9.478;2022-12-18T01:57:46;91.85;;;32.13;;
2992;SDS011;1506;48.932;9.478;2022-12-18T02:00:17;63.08;;;24.40;;
2992;SDS011;1506;48.932;9.478;2022-12-18T02:02:46;73.95;;;25.65;;
2992;SDS011;1506;48.932;9.478;2022-12-18T02:05:15;73.50;;;26.08;;
2992;SDS011;1506;48.932;9.478;2022-12-18T02:10:27;89.30;;;28.02;;
2992;SDS011;1506;48.932;9.478;2022-12-18T02:13:32;86.25;;;31.63;;
2992;SDS011;1506;48.932;9.478;2022-12-18T02:18:46;65.18;;;24.20;;
2992;SDS011;1506;48.932;9.478;2022-12-18T02:24:02;76.65;;;27.20;;
2992;SDS011;1506;48.932;9.478;2022-12-18T02:26:54;89.15;;;26.55;;
2992;SDS011;1506;48.932;9.478;2022-12-18T02:29:30;100.63;;;26.38;;
2992;SDS011;1506;48.932;9.478;2022-12-18T02:32:08;72.90;;;27.75;;
2992;SDS011;1506;48.932;9.478;2022-12-18T02:34:39;91.43;;;27.60;;
2992;SDS011;1506;48.932;9.478;2022-12-18T02:37:13;65.05;;;24.55;;
2992;SDS011;1506;48.932;9.478;2022-12-18T02:39:42;62.78;;;22.60;;
2992;SDS011;1506;48.932;9.478;2022-12-18T02:42:12;60.22;;;21.73;;
2992;SDS011;1506;48.932;9.478;2022-12-18T02:44:44;80.22;;;22.83;;
2992;SDS011;1506;48.932;9.478;2022-12-18T02:47:22;88.45;;;30.20;;
2992;SDS011;1506;48.932;9.478;2022-12-18T02:58:18;65.95;;;23.40;;
2992;SDS011;1506;48.932;9.478;2022-12-18T03:01:21;79.00;;;28.38;;
2992;SDS011;1506;48.932;9.478;2022-12-18T03:03:52;84.95;;;31.20;;
2992;SDS011;1506;48.932;9.478;2022-12-18T03:06:37;49.05;;;24.73;;
2992;SDS011;1506;48.932;9.478;2022-12-18T03:09:09;78.15;;;28.10;;
2992;SDS011;1506;48.932;9.478;2022-12-18T03:11:42;90.13;;;28.88;;
2992;SDS011;1506;48.932;9.478;2022-12-18T03:14:31;64.95;;;26.50;;
2992;SDS011;1506;48.932;9.478;2022-12-18T03:17:02;66.43;;;25.13;;
2992;SDS011;1506;48.932;9.478;2022-12-18T03:19:32;80.57;;;29.20;;
2992;SDS011;1506;48.932;9.478;2022-12-18T03:22:01;92.85;;;34.90;;
2992;SDS011;1506;48.932;9.478;2022-12-18T03:24:39;64.20;;;23.85;;
2992;SDS011;1506;48.932;9.478;2022-12-18T03:27:09;88.68;;;30.17;;
2992;SDS011;1506;48.932;9.478;2022-12-18T03:29:40;83.97;;;26.30;;
2992;SDS011;1506;48.932;9.478;2022-12-18T03:32:25;68.88;;;25.95;;
2992;SDS011;1506;48.932;9.478;2022-12-18T03:34:57;64.15;;;25.00;;
2992;SDS011;1506;48.932;9.478;2022-12-18T03:37:30;59.38;;;20.27;;
2992;SDS011;1506;48.932;9.478;2022-12-18T03:39:58;93.43;;;27.63;;
2992;SDS011;1506;48.932;9.478;2022-12-18T03:53:55;52.78;;;20.45;;
2992;SDS011;1506;48.932;9.478;2022-12-18T03:56:27;17.90;;;8.68;;
2992;SDS011;1506;48.932;9.478;2022-12-18T03:58:58;46.10;;;19.17;;
2992;SDS011;1506;48.932;9.478;2022-12-18T04:01:30;92.53;;;28.48;;
2992;SDS011;1506;48.932;9.478;2022-12-18T04:04:00;66.50;;;20.08;;
2992;SDS011;1506;48.932;9.478;2022-12-18T04:06:32;56.30;;;21.30;;
2992;SDS011;1506;48.932;9.478;2022-12-18T04:09:00;53.45;;;19.80;;
2992;SDS011;1506;48.932;9.478;2022-12-18T04:11:29;44.80;;;16.42;;
2992;SDS011;1506;48.932;9.478;2022-12-18T04:13:57;34.42;;;10.65;;
2992;SDS011;1506;48.932;9.478;2022-12-18T04:16:25;33.00;;;18.92;;
2992;SDS011;1506;48.932;9.478;2022-12-18T04:18:56;77.15;;;23.23;;
2992;SDS011;1506;48.932;9.478;2022-12-18T04:21:25;90.70;;;19.55;;
2992;SDS011;1506;48.932;9.478;2022-12-18T04:23:52;64.60;;;22.13;;
2992;SDS011;1506;48.932;9.478;2022-12-18T04:26:21;45.20;;;19.23;;
2992;SDS011;1506;48.932;9.478;2022-12-18T04:28:59;64.68;;;25.65;;
2992;SDS011;1506;48.932;9.478;2022-12-18T04:31:27;49.80;;;19.92;;
2992;SDS011;1506;48.932;9.478;2022-12-18T04:33:55;21.40;;;10.35;;
2992;SDS011;1506;48.932;9.478;2022-12-18T04:36:23;42.25;;;20.55;;
2992;SDS011;1506;48.932;9.478;2022-12-18T04:38:52;59.03;;;20.17;;
2992;SDS011;1506;48.932;9.478;2022-12-18T04:41:20;60.47;;;20.48;;
2992;SDS011;1506;48.932;9.478;2022-12-18T04:43:50;38.03;;;20.17;;
2992;SDS011;1506;48.932;9.478;2022-12-18T04:46:18;66.55;;;22.55;;
2992;SDS011;1506;48.932;9.478;2022-12-18T04:48:45;76.50;;;20.73;;
2992;SDS011;1506;48.932;9.478;2022-12-18T04:51:13;47.25;;;21.58;;
2992;SDS011;1506;48.932;9.478;2022-12-18T04:53:40;61.55;;;21.85;;
2992;SDS011;1506;48.932;9.478;2022-12-18T04:56:09;76.78;;;21.00;;
2992;SDS011;1506;48.932;9.478;2022-12-18T04:58:38;63.95;;;21.58;;
2992;SDS011;1506;48.932;9.478;2022-12-18T05:01:07;59.50;;;22.50;;
2992;SDS011;1506;48.932;9.478;2022-12-18T05:03:35;64.20;;;21.92;;
2992;SDS011;1506;48.932;9.478;2022-12-18T05:06:04;90.38;;;28.83;;
2992;SDS011;1506;48.932;9.478;2022-12-18T05:08:33;75.53;;;28.88;;
2992;SDS011;1506;48.932;9.478;2022-12-18T05:11:10;77.47;;;30.20;;
2992;SDS011;1506;48.932;9.478;2022-12-18T05:13:40;72.22;;;22.48;;
2992;SDS011;1506;48.932;9.478;2022-12-18T05:16:08;56.17;;;20.73;;
2992;SDS011;1506;48.932;9.478;2022-12-18T05:18:36;60.30;;;24.40;;
2992;SDS011;1506;48.932;9.478;2022-12-18T05:21:04;57.65;;;18.27;;
2992;SDS011;1506;48.932;9.478;2022-12-18T05:23:31;72.57;;;24.15;;
2992;SDS011;1506;48.932;9.478;2022-12-18T05:26:03;68.72;;;24.52;;
2992;SDS011;1506;48.932;9.478;2022-12-18T05:28:32;66.63;;;23.38;;
2992;SDS011;1506;48.932;9.478;2022-12-18T05:31:00;70.13;;;23.48;;
2992;SDS011;1506;48.932;9.478;2022-12-18T05:33:29;65.45;;;27.33;;
2992;SDS011;1506;48.932;9.478;2022-12-18T05:35:59;78.60;;;22.88;;
2992;SDS011;1506;48.932;9.478;2022-12-18T05:38:28;56.75;;;22.17;;
2992;SDS011;1506;48.932;9.478;2022-12-18T05:40:56;58.92;;;22.48;;
2992;SDS011;1506;48.932;9.478;2022-12-18T05:43:25;62.05;;;23.70;;
2992;SDS011;1506;48.932;9.478;2022-12-18T05:45:53;70.15;;;21.25;;
2992;SDS011;1506;48.932;9.478;2022-12-18T05:48:21;46.78;;;18.65;;
2992;SDS011;1506;48.932;9.478;2022-12-18T05:50:48;69.32;;;23.38;;
2992;SDS011;1506;48.932;9.478;2022-12-18T05:53:17;63.67;;;24.83;;
2992;SDS011;1506;48.932;9.478;2022-12-18T05:55:46;66.03;;;21.10;;
2992;SDS011;1506;48.932;9.478;2022-12-18T05:58:14;47.15;;;17.77;;
2992;SDS011;1506;48.932;9.478;2022-12-18T06:00:42;71.40;;;21.65;;
2992;SDS011;1506;48.932;9.478;2022-12-18T06:03:11;48.28;;;18.23;;
2992;SDS011;1506;48.932;9.478;2022-12-18T06:05:40;45.22;;;19.05;;
2992;SDS011;1506;48.932;9.478;2022-12-18T06:08:09;59.13;;;19.75;;
2992;SDS011;1506;48.932;9.478;2022-12-18T06:10:37;62.83;;;21.83;;
2992;SDS011;1506;48.932;9.478;2022-12-18T06:13:06;55.90;;;20.60;;
2992;SDS011;1506;48.932;9.478;2022-12-18T06:15:36;56.25;;;20.92;;
2992;SDS011;1506;48.932;9.478;2022-12-18T06:18:03;44.03;;;19.15;;
2992;SDS011;1506;48.932;9.478;2022-12-18T06:20:31;50.10;;;19.73;;
2992;SDS011;1506;48.932;9.478;2022-12-18T06:22:59;50.03;;;19.33;;
2992;SDS011;1506;48.932;9.478;2022-12-18T06:25:26;60.03;;;21.42;;
2992;SDS011;1506;48.932;9.478;2022-12-18T06:27:54;65.13;;;21.65;;
2992;SDS011;1506;48.932;9.478;2022-12-18T06:30:21;53.55;;;22.77;;
2992;SDS011;1506;48.932;9.478;2022-12-18T06:32:49;52.22;;;19.67;;
2992;SDS011;1506;48.932;9.478;2022-12-18T06:35:22;68.93;;;23.20;;
2992;SDS011;1506;48.932;9.478;2022-12-18T06:37:50;61.45;;;21.30;;
2992;SDS011;1506;48.932;9.478;2022-12-18T06:40:17;53.72;;;19.20;;
2992;SDS011;1506;48.932;9.478;2022-12-18T06:42:44;75.22;;;21.95;;
2992;SDS011;1506;48.932;9.478;2022-12-18T06:45:12;67.22;;;23.33;;
2992;SDS011;1506;48.932;9.478;2022-12-18T06:47:42;68.30;;;24.83;;
2992;SDS011;1506;48.932;9.478;2022-12-18T06:50:10;63.00;;;23.13;;
2992;SDS011;1506;48.932;9.478;2022-12-18T06:52:38;42.75;;;19.88;;
2992;SDS011;1506;48.932;9.478;2022-12-18T06:55:06;38.58;;;17.25;;
2992;SDS011;1506;48.932;9.478;2022-12-18T06:57:34;62.70;;;22.42;;
2992;SDS011;1506;48.932;9.478;2022-12-18T07:00:02;61.92;;;22.20;;
2992;SDS011;1506;48.932;9.478;2022-12-18T07:02:31;63.45;;;20.27;;
2992;SDS011;1506;48.932;9.478;2022-12-18T07:04:59;73.95;;;24.25;;
2992;SDS011;1506;48.932;9.478;2022-12-18T07:07:35;49.88;;;19.83;;
2992;SDS011;1506;48.932;9.478;2022-12-18T07:10:03;47.03;;;20.83;;
2992;SDS011;1506;48.932;9.478;2022-12-18T07:12:30;53.90;;;20.75;;
2992;SDS011;1506;48.932;9.478;2022-12-18T07:14:58;50.97;;;18.23;;
2992;SDS011;1506;48.932;9.478;2022-12-18T07:17:25;68.82;;;20.65;;
2992;SDS011;1506;48.932;9.478;2022-12-18T07:19:53;49.75;;;19.10;;
2992;SDS011;1506;48.932;9.478;2022-12-18T07:22:20;58.45;;;19.48;;
2992;SDS011;1506;48.932;9.478;2022-12-18T07:24:48;45.13;;;16.83;;
2992;SDS011;1506;48.932;9.478;2022-12-18T07:27:15;48.20;;;19.65;;
2992;SDS011;1506;48.932;9.478;2022-12-18T07:29:43;54.10;;;14.95;;
2992;SDS011;1506;48.932;9.478;2022-12-18T07:32:10;62.65;;;18.80;;
2992;SDS011;1506;48.932;9.478;2022-12-18T07:34:38;61.85;;;20.00;;
2992;SDS011;1506;48.932;9.478;2022-12-18T07:37:06;62.20;;;19.95;;
2992;SDS011;1506;48.932;9.478;2022-12-18T07:39:33;57.33;;;19.83;;
2992;SDS011;1506;48.932;9.478;2022-12-18T07:42:01;55.80;;;20.38;;
2992;SDS011;1506;48.932;9.478;2022-12-18T07:44:48;63.47;;;20.70;;
2992;SDS011;1506;48.932;9.478;2022-12-18T07:47:15;63.55;;;22.25;;
2992;SDS011;1506;48.932;9.478;2022-12-18T07:49:43;52.30;;;20.50;;
2992;SDS011;1506;48.932;9.478;2022-12-18T07:52:10;54.38;;;21.15;;
2992;SDS011;1506;48.932;9.478;2022-12-18T07:54:38;57.50;;;21.83;;
2992;SDS011;1506;48.932;9.478;2022-12-18T07:57:06;76.82;;;18.15;;
2992;SDS011;1506;48.932;9.478;2022-12-18T07:59:54;51.33;;;19.02;;
2992;SDS011;1506;48.932;9.478;2022-12-18T08:02:21;65.05;;;21.95;;
2992;SDS011;1506;48.932;9.478;2022-12-18T08:04:49;59.90;;;22.90;;
2992;SDS011;1506;48.932;9.478;2022-12-18T08:07:16;62.35;;;21.77;;
2992;SDS011;1506;48.932;9.478;2022-12-18T08:09:43;61.17;;;23.25;;
2992;SDS011;1506;48.932;9.478;2022-12-18T08:12:11;77.97;;;27.80;;
2992;SDS011;1506;48.932;9.478;2022-12-18T08:14:38;59.92;;;22.23;;
2992;SDS011;1506;48.932;9.478;2022-12-18T08:17:06;69.47;;;20.23;;
2992;SDS011;1506;48.932;9.478;2022-12-18T08:19:33;63.75;;;25.30;;
2992;SDS011;1506;48.932;9.478;2022-12-18T08:22:00;65.88;;;21.75;;
2992;SDS011;1506;48.932;9.478;2022-12-18T08:24:28;51.25;;;23.55;;
2992;SDS011;1506;48.932;9.478;2022-12-18T08:26:55;60.20;;;25.00;;
2992;SDS011;1506;48.932;9.478;2022-12-18T08:29:43;59.50;;;22.38;;
2992;SDS011;1506;48.932;9.478;2022-12-18T08:32:10;60.30;;;24.00;;
2992;SDS011;1506;48.932;9.478;2022-12-18T08:34:38;70.90;;;28.45;;
2992;SDS011;1506;48.932;9.478;2022-12-18T08:37:05;64.43;;;27.27;;
2992;SDS011;1506;48.932;9.478;2022-12-18T08:39:32;151.00;;;44.60;;
2992;SDS011;1506;48.932;9.478;2022-12-18T08:42:00;115.97;;;39.73;;
2992;SDS011;1506;48.932;9.478;2022-12-18T08:44:46;94.83;;;35.10;;
2992;SDS011;1506;48.932;9.478;2022-12-18T08:47:14;121.13;;;39.10;;
2992;SDS011;1506;48.932;9.478;2022-12-18T08:49:41;169.73;;;58.40;;
2992;SDS011;1506;48.932;9.478;2022-12-18T08:52:09;127.90;;;43.07;;
2992;SDS011;1506;48.932;9.478;2022-12-18T08:54:36;308.00;;;80.03;;
2992;SDS011;1506;48.932;9.478;2022-12-18T08:57:04;417.70;;;128.27;;
2992;SDS011;1506;48.932;9.478;2022-12-18T08:59:31;464.67;;;137.90;;
2992;SDS011;1506;48.932;9.478;2022-12-18T09:01:58;163.73;;;54.23;;
2992;SDS011;1506;48.932;9.478;2022-12-18T09:04:26;109.87;;;40.47;;
2992;SDS011;1506;48.932;9.478;2022-12-18T09:06:54;69.53;;;32.70;;
2992;SDS011;1506;48.932;9.478;2022-12-18T09:09:21;91.40;;;33.63;;
2992;SDS011;1506;48.932;9.478;2022-12-18T09:11:48;74.07;;;32.83;;
2992;SDS011;1506;48.932;9.478;2022-12-18T09:14:16;77.50;;;30.77;;
2992;SDS011;1506;48.932;9.478;2022-12-18T09:16:43;86.73;;;37.53;;
2992;SDS011;1506;48.932;9.478;2022-12-18T09:19:10;79.00;;;34.30;;
2992;SDS011;1506;48.932;9.478;2022-12-18T09:21:38;74.97;;;32.97;;
2992;SDS011;1506;48.932;9.478;2022-12-18T09:24:14;87.87;;;32.13;;
2992;SDS011;1506;48.932;9.478;2022-12-18T09:26:42;88.33;;;35.53;;
2992;SDS011;1506;48.932;9.478;2022-12-18T09:29:12;88.60;;;32.90;;
2992;SDS011;1506;48.932;9.478;2022-12-18T09:31:41;76.43;;;31.70;;
2992;SDS011;1506;48.932;9.478;2022-12-18T09:34:09;70.93;;;31.17;;
2992;SDS011;1506;48.932;9.478;2022-12-18T09:36:36;83.17;;;35.83;;
2992;SDS011;1506;48.932;9.478;2022-12-18T09:39:03;75.00;;;32.27;;
2992;SDS011;1506;48.932;9.478;2022-12-18T09:44:13;66.80;;;25.27;;
2992;SDS011;1506;48.932;9.478;2022-12-18T09:49:38;61.57;;;24.60;;
2992;SDS011;1506;48.932;9.478;2022-12-18T09:55:03;63.80;;;24.43;;
2992;SDS011;1506;48.932;9.478;2022-12-18T09:57:53;48.17;;;20.20;;
2992;SDS011;1506;48.932;9.478;2022-12-18T10:00:24;84.00;;;30.13;;
2992;SDS011;1506;48.932;9.478;2022-12-18T10:02:51;66.13;;;25.03;;
2992;SDS011;1506;48.932;9.478;2022-12-18T10:05:29;61.33;;;25.27;;
2992;SDS011;1506;48.932;9.478;2022-12-18T10:11:09;47.67;;;19.87;;
2992;SDS011;1506;48.932;9.478;2022-12-18T10:13:46;45.77;;;15.60;;
2992;SDS011;1506;48.932;9.478;2022-12-18T10:21:51;42.60;;;17.83;;
2992;SDS011;1506;48.932;9.478;2022-12-18T10:24:46;47.67;;;16.53;;
2992;SDS011;1506;48.932;9.478;2022-12-18T10:27:17;38.53;;;18.50;;
2992;SDS011;1506;48.932;9.478;2022-12-18T10:29:50;37.80;;;15.10;;
2992;SDS011;1506;48.932;9.478;2022-12-18T10:32:20;43.57;;;16.60;;
2992;SDS011;1506;48.932;9.478;2022-12-18T10:34:53;27.30;;;15.30;;
2992;SDS011;1506;48.932;9.478;2022-12-18T10:37:28;40.90;;;16.90;;
2992;SDS011;1506;48.932;9.478;2022-12-18T10:40:10;37.10;;;15.70;;
2992;SDS011;1506;48.932;9.478;2022-12-18T10:42:47;37.17;;;16.23;;
2992;SDS011;1506;48.932;9.478;2022-12-18T10:45:38;44.10;;;15.90;;
2992;SDS011;1506;48.932;9.478;2022-12-18T10:48:17;36.67;;;15.20;;
2992;SDS011;1506;48.932;9.478;2022-12-18T10:50:46;40.53;;;15.87;;
2992;SDS011;1506;48.932;9.478;2022-12-18T10:53:36;45.80;;;18.57;;
2992;SDS011;1506;48.932;9.478;2022-12-18T10:56:04;92.10;;;25.80;;
2992;SDS011;1506;48.932;9.478;2022-12-18T10:58:33;37.50;;;17.13;;
2992;SDS011;1506;48.932;9.478;2022-12-18T11:01:14;42.77;;;17.37;;
2992;SDS011;1506;48.932;9.478;2022-12-18T11:06:18;42.90;;;15.90;;
2992;SDS011;1506;48.932;9.478;2022-12-18T11:08:59;36.67;;;15.60;;
2992;SDS011;1506;48.932;9.478;2022-12-18T11:11:40;36.53;;;16.07;;
2992;SDS011;1506;48.932;9.478;2022-12-18T11:14:16;39.67;;;11.77;;
2992;SDS011;1506;48.932;9.478;2022-12-18T11:16:48;41.90;;;14.73;;
2992;SDS011;1506;48.932;9.478;2022-12-18T11:19:39;51.43;;;18.50;;
2992;SDS011;1506;48.932;9.478;2022-12-18T11:24:58;37.60;;;17.00;;
2992;SDS011;1506;48.932;9.478;2022-12-18T11:27:51;30.70;;;13.70;;
2992;SDS011;1506;48.932;9.478;2022-12-18T11:30:28;39.17;;;14.77;;
2992;SDS011;1506;48.932;9.478;2022-12-18T11:33:36;45.33;;;16.70;;
2992;SDS011;1506;48.932;9.478;2022-12-18T11:35:57;50.20;;;17.43;;
2992;SDS011;1506;48.932;9.478;2022-12-18T11:38:26;21.03;;;11.37;;
2992;SDS011;1506;48.932;9.478;2022-12-18T11:43:34;34.03;;;13.47;;
2992;SDS011;1506;48.932;9.478;2022-12-18T11:46:13;34.77;;;14.90;;
2992;SDS011;1506;48.932;9.478;2022-12-18T11:48:55;32.80;;;13.23;;
2992;SDS011;1506;48.932;9.478;2022-12-18T11:51:38;31.67;;;14.43;;
2992;SDS011;1506;48.932;9.478;2022-12-18T11:54:16;42.43;;;15.23;;
2992;SDS011;1506;48.932;9.478;2022-12-18T12:04:48;39.60;;;16.10;;
2992;SDS011;1506;48.932;9.478;2022-12-18T12:07:29;36.37;;;16.10;;
2992;SDS011;1506;48.932;9.478;2022-12-18T12:24:49;37.40;;;16.20;;
2992;SDS011;1506;48.932;9.478;2022-12-18T12:32:34;28.87;;;12.40;;
2992;SDS011;1506;48.932;9.478;2022-12-18T12:35:16;41.77;;;16.07;;
2992;SDS011;1506;48.932;9.478;2022-12-18T12:40:26;51.53;;;15.73;;
2992;SDS011;1506;48.932;9.478;2022-12-18T12:48:38;34.23;;;13.80;;
2992;SDS011;1506;48.932;9.478;2022-12-18T12:51:24;34.07;;;11.57;;
2992;SDS011;1506;48.932;9.478;2022-12-18T12:53:58;42.93;;;16.17;;
2992;SDS011;1506;48.932;9.478;2022-12-18T12:59:28;36.47;;;15.27;;
2992;SDS011;1506;48.932;9.478;2022-12-18T13:02:11;48.60;;;20.00;;
2992;SDS011;1506;48.932;9.478;2022-12-18T13:07:34;36.47;;;17.07;;
2992;SDS011;1506;48.932;9.478;2022-12-18T13:18:06;41.47;;;17.60;;
2992;SDS011;1506;48.932;9.478;2022-12-18T13:28:52;40.47;;;15.70;;
2992;SDS011;1506;48.932;9.478;2022-12-18T13:36:52;43.47;;;18.20;;
2992;SDS011;1506;48.932;9.478;2022-12-18T13:39:22;48.00;;;16.10;;
2992;SDS011;1506;48.932;9.478;2022-12-18T13:44:37;30.43;;;15.40;;
2992;SDS011;1506;48.932;9.478;2022-12-18T13:50:37;51.20;;;18.67;;
2992;SDS011;1506;48.932;9.478;2022-12-18T13:53:01;42.07;;;15.30;;
2992;SDS011;1506;48.932;9.478;2022-12-18T13:55:30;37.37;;;17.60;;
2992;SDS011;1506;48.932;9.478;2022-12-18T13:58:04;35.53;;;15.40;;
2992;SDS011;1506;48.932;9.478;2022-12-18T14:00:32;43.10;;;17.20;;
2992;SDS011;1506;48.932;9.478;2022-12-18T14:03:00;42.43;;;17.70;;
2992;SDS011;1506;48.932;9.478;2022-12-18T14:08:00;31.03;;;15.73;;
2992;SDS011;1506;48.932;9.478;2022-12-18T14:10:34;50.47;;;15.17;;
2992;SDS011;1506;48.932;9.478;2022-12-18T14:16:06;31.13;;;14.60;;
2992;SDS011;1506;48.932;9.478;2022-12-18T14:18:38;51.07;;;16.47;;
2992;SDS011;1506;48.932;9.478;2022-12-18T14:21:26;38.33;;;14.90;;
2992;SDS011;1506;48.932;9.478;2022-12-18T14:26:45;39.50;;;15.70;;
2992;SDS011;1506;48.932;9.478;2022-12-18T14:29:23;44.47;;;17.37;;
2992;SDS011;1506;48.932;9.478;2022-12-18T14:34:48;43.77;;;16.87;;
2992;SDS011;1506;48.932;9.478;2022-12-18T14:37:23;52.10;;;21.30;;
2992;SDS011;1506;48.932;9.478;2022-12-18T14:39:56;45.33;;;17.60;;
2992;SDS011;1506;48.932;9.478;2022-12-18T14:42:36;41.87;;;16.70;;
2992;SDS011;1506;48.932;9.478;2022-12-18T14:48:54;34.07;;;12.63;;
2992;SDS011;1506;48.932;9.478;2022-12-18T14:51:04;29.57;;;12.33;;
2992;SDS011;1506;48.932;9.478;2022-12-18T14:53:52;33.33;;;13.33;;
2992;SDS011;1506;48.932;9.478;2022-12-18T14:56:31;27.83;;;10.70;;
2992;SDS011;1506;48.932;9.478;2022-12-18T14:59:01;46.40;;;16.23;;
2992;SDS011;1506;48.932;9.478;2022-12-18T15:04:04;40.33;;;17.47;;
2992;SDS011;1506;48.932;9.478;2022-12-18T15:06:50;42.87;;;18.27;;
2992;SDS011;1506;48.932;9.478;2022-12-18T15:09:35;39.67;;;15.33;;
2992;SDS011;1506;48.932;9.478;2022-12-18T15:12:03;36.60;;;15.50;;
2992;SDS011;1506;48.932;9.478;2022-12-18T15:17:02;49.53;;;18.70;;
2992;SDS011;1506;48.932;9.478;2022-12-18T15:19:41;25.40;;;10.83;;
2992;SDS011;1506;48.932;9.478;2022-12-18T15:22:29;35.07;;;15.20;;
2992;SDS011;1506;48.932;9.478;2022-12-18T15:25:00;39.43;;;15.63;;
2992;SDS011;1506;48.932;9.478;2022-12-18T15:30:30;39.37;;;16.90;;
2992;SDS011;1506;48.932;9.478;2022-12-18T15:32:51;40.93;;;16.17;;
2992;SDS011;1506;48.932;9.478;2022-12-18T15:37:48;47.60;;;18.60;;
2992;SDS011;1506;48.932;9.478;2022-12-18T15:40:17;40.73;;;18.20;;
2992;SDS011;1506;48.932;9.478;2022-12-18T15:42:48;41.33;;;17.73;;
2992;SDS011;1506;48.932;9.478;2022-12-18T15:45:36;52.33;;;18.67;;
2992;SDS011;1506;48.932;9.478;2022-12-18T15:48:15;37.90;;;14.43;;
2992;SDS011;1506;48.932;9.478;2022-12-18T15:50:46;40.30;;;15.33;;
2992;SDS011;1506;48.932;9.478;2022-12-18T15:53:15;39.50;;;17.23;;
2992;SDS011;1506;48.932;9.478;2022-12-18T15:55:42;49.90;;;16.80;;
2992;SDS011;1506;48.932;9.478;2022-12-18T15:58:28;36.77;;;16.40;;
2992;SDS011;1506;48.932;9.478;2022-12-18T16:00:56;46.10;;;19.17;;
2992;SDS011;1506;48.932;9.478;2022-12-18T16:03:25;47.57;;;19.50;;
2992;SDS011;1506;48.932;9.478;2022-12-18T16:05:53;35.63;;;14.23;;
2992;SDS011;1506;48.932;9.478;2022-12-18T16:08:22;41.40;;;15.40;;
2992;SDS011;1506;48.932;9.478;2022-12-18T16:10:49;42.40;;;19.53;;
2992;SDS011;1506;48.932;9.478;2022-12-18T16:13:16;47.60;;;17.70;;
2992;SDS011;1506;48.932;9.478;2022-12-18T16:15:46;45.83;;;19.40;;
2992;SDS011;1506;48.932;9.478;2022-12-18T16:18:14;49.70;;;18.30;;
2992;SDS011;1506;48.932;9.478;2022-12-18T16:20:42;47.13;;;18.73;;
2992;SDS011;1506;48.932;9.478;2022-12-18T16:23:09;46.60;;;18.90;;
2992;SDS011;1506;48.932;9.478;2022-12-18T16:25:36;55.23;;;23.80;;
2992;SDS011;1506;48.932;9.478;2022-12-18T16:28:04;50.53;;;21.23;;
2992;SDS011;1506;48.932;9.478;2022-12-18T16:30:31;73.13;;;26.87;;
2992;SDS011;1506;48.932;9.478;2022-12-18T16:33:04;80.07;;;30.30;;
2992;SDS011;1506;48.932;9.478;2022-12-18T16:35:33;56.90;;;21.60;;
2992;SDS011;1506;48.932;9.478;2022-12-18T16:38:03;50.07;;;18.50;;
2992;SDS011;1506;48.932;9.478;2022-12-18T16:40:31;52.97;;;18.47;;
2992;SDS011;1506;48.932;9.478;2022-12-18T16:42:59;48.17;;;18.43;;
2992;SDS011;1506;48.932;9.478;2022-12-18T16:45:26;38.90;;;18.30;;
2992;SDS011;1506;48.932;9.478;2022-12-18T16:47:59;41.23;;;15.83;;
2992;SDS011;1506;48.932;9.478;2022-12-18T16:50:26;65.30;;;19.03;;
2992;SDS011;1506;48.932;9.478;2022-12-18T16:52:54;42.27;;;14.90;;
2992;SDS011;1506;48.932;9.478;2022-12-18T16:55:21;36.53;;;17.73;;
2992;SDS011;1506;48.932;9.478;2022-12-18T16:57:48;45.63;;;16.37;;
2992;SDS011;1506;48.932;9.478;2022-12-18T17:00:16;53.47;;;18.47;;
2992;SDS011;1506;48.932;9.478;2022-12-18T17:02:43;46.50;;;16.43;;
2992;SDS011;1506;48.932;9.478;2022-12-18T17:05:12;42.40;;;17.47;;
2992;SDS011;1506;48.932;9.478;2022-12-18T17:07:40;48.33;;;18.27;;
2992;SDS011;1506;48.932;9.478;2022-12-18T17:10:07;43.20;;;17.00;;
2992;SDS011;1506;48.932;9.478;2022-12-18T17:12:35;58.53;;;17.33;;
2992;SDS011;1506;48.932;9.478;2022-12-18T17:15:02;39.50;;;17.53;;
2992;SDS011;1506;48.932;9.478;2022-12-18T17:17:30;40.87;;;18.63;;
2992;SDS011;1506;48.932;9.478;2022-12-18T17:19:58;54.63;;;17.83;;
2992;SDS011;1506;48.932;9.478;2022-12-18T17:22:26;52.37;;;22.60;;
2992;SDS011;1506;48.932;9.478;2022-12-18T17:24:53;58.83;;;21.13;;
2992;SDS011;1506;48.932;9.478;2022-12-18T17:27:20;41.70;;;19.10;;
2992;SDS011;1506;48.932;9.478;2022-12-18T17:29:48;42.60;;;17.20;;
2992;SDS011;1506;48.932;9.478;2022-12-18T17:32:15;47.80;;;19.77;;
2992;SDS011;1506;48.932;9.478;2022-12-18T17:34:43;49.07;;;16.37;;
2992;SDS011;1506;48.932;9.478;2022-12-18T17:37:11;52.20;;;18.87;;
2992;SDS011;1506;48.932;9.478;2022-12-18T17:39:39;58.43;;;18.80;;
2992;SDS011;1506;48.932;9.478;2022-12-18T17:42:07;52.33;;;18.53;;
2992;SDS011;1506;48.932;9.478;2022-12-18T17:44:41;49.53;;;16.77;;